Terminal Aerodrome Forecast
Issued by NWS

Home | Current Version | Previous Version | Text Only | Print | Product List | Glossary On
Versions: 1 2 3 4 5 6 7 8 9 10 11 12 13 14
000
FTUS46 KMTR 222326
TAFOAK
TAF
KOAK 222326Z 2300/2406 28016G22KT P6SM FEW035 SCT045 SCT200
     FM230100 29018G25KT P6SM FEW040 FEW050 FEW250
     FM230700 29014KT P6SM FEW030 FEW250
     FM231000 30009KT P6SM FEW250
     FM231500 33006KT P6SM SKC
     FM232100 31010KT P6SM SKC
     FM240400 31005KT P6SM SKC=

USA.gov is the U.S. government's official web portal to all federal, state and local government web resources and services.